sensor_id;sensor_type;location;lat;lon;timestamp;P1;durP1;ratioP1;P2;durP2;ratioP2
20593;SDS011;10455;48.732;10.266;2023-06-04T00:03:50;10.47;;;9.47;;
20593;SDS011;10455;48.732;10.266;2023-06-04T00:08:54;10.67;;;9.67;;
20593;SDS011;10455;48.732;10.266;2023-06-04T00:13:56;10.97;;;9.37;;
20593;SDS011;10455;48.732;10.266;2023-06-04T00:18:58;9.67;;;8.67;;
20593;SDS011;10455;48.732;10.266;2023-06-04T00:24:01;9.77;;;8.77;;
20593;SDS011;10455;48.732;10.266;2023-06-04T00:29:03;9.97;;;8.97;;
20593;SDS011;10455;48.732;10.266;2023-06-04T00:34:05;11.43;;;10.33;;
20593;SDS011;10455;48.732;10.266;2023-06-04T00:39:09;11.17;;;10.07;;
20593;SDS011;10455;48.732;10.266;2023-06-04T00:44:11;11.07;;;9.97;;
20593;SDS011;10455;48.732;10.266;2023-06-04T00:49:12;10.33;;;9.33;;
20593;SDS011;10455;48.732;10.266;2023-06-04T00:54:16;9.37;;;8.40;;
20593;SDS011;10455;48.732;10.266;2023-06-04T00:59:18;8.40;;;7.60;;
20593;SDS011;10455;48.732;10.266;2023-06-04T01:04:21;9.20;;;8.37;;
20593;SDS011;10455;48.732;10.266;2023-06-04T01:09:29;8.47;;;7.67;;
20593;SDS011;10455;48.732;10.266;2023-06-04T01:14:32;8.20;;;7.40;;
20593;SDS011;10455;48.732;10.266;2023-06-04T01:19:41;7.20;;;6.50;;
20593;SDS011;10455;48.732;10.266;2023-06-04T01:25:02;8.00;;;7.17;;
20593;SDS011;10455;48.732;10.266;2023-06-04T01:30:05;9.07;;;6.87;;
20593;SDS011;10455;48.732;10.266;2023-06-04T01:35:10;6.97;;;6.23;;
20593;SDS011;10455;48.732;10.266;2023-06-04T01:40:14;8.37;;;6.17;;
20593;SDS011;10455;48.732;10.266;2023-06-04T01:45:17;8.20;;;6.40;;
20593;SDS011;10455;48.732;10.266;2023-06-04T01:50:19;7.77;;;6.97;;
20593;SDS011;10455;48.732;10.266;2023-06-04T01:55:22;7.33;;;6.63;;
20593;SDS011;10455;48.732;10.266;2023-06-04T02:00:26;8.83;;;6.37;;
20593;SDS011;10455;48.732;10.266;2023-06-04T02:05:28;8.20;;;7.40;;
20593;SDS011;10455;48.732;10.266;2023-06-04T02:10:31;8.55;;;7.80;;
20593;SDS011;10455;48.732;10.266;2023-06-04T02:15:33;8.73;;;7.83;;
20593;SDS011;10455;48.732;10.266;2023-06-04T02:20:35;7.50;;;6.00;;
20593;SDS011;10455;48.732;10.266;2023-06-04T02:25:38;6.90;;;5.73;;
20593;SDS011;10455;48.732;10.266;2023-06-04T02:30:40;7.00;;;6.30;;
20593;SDS011;10455;48.732;10.266;2023-06-04T02:35:42;5.87;;;5.23;;
20593;SDS011;10455;48.732;10.266;2023-06-04T02:40:45;6.90;;;6.13;;
20593;SDS011;10455;48.732;10.266;2023-06-04T02:45:47;6.87;;;6.17;;
20593;SDS011;10455;48.732;10.266;2023-06-04T02:50:49;6.93;;;6.27;;
20593;SDS011;10455;48.732;10.266;2023-06-04T02:55:53;6.93;;;5.67;;
20593;SDS011;10455;48.732;10.266;2023-06-04T03:00:55;6.53;;;5.93;;
20593;SDS011;10455;48.732;10.266;2023-06-04T03:05:56;7.17;;;6.43;;
20593;SDS011;10455;48.732;10.266;2023-06-04T03:11:01;6.77;;;6.17;;
20593;SDS011;10455;48.732;10.266;2023-06-04T03:16:03;6.80;;;6.20;;
20593;SDS011;10455;48.732;10.266;2023-06-04T03:21:09;6.33;;;5.07;;
20593;SDS011;10455;48.732;10.266;2023-06-04T03:26:14;8.27;;;5.80;;
20593;SDS011;10455;48.732;10.266;2023-06-04T03:31:16;6.43;;;5.60;;
20593;SDS011;10455;48.732;10.266;2023-06-04T03:36:18;6.17;;;5.57;;
20593;SDS011;10455;48.732;10.266;2023-06-04T03:41:21;6.03;;;5.43;;
20593;SDS011;10455;48.732;10.266;2023-06-04T03:46:23;7.10;;;5.00;;
20593;SDS011;10455;48.732;10.266;2023-06-04T03:51:28;6.13;;;5.53;;
20593;SDS011;10455;48.732;10.266;2023-06-04T03:56:32;5.63;;;4.70;;
20593;SDS011;10455;48.732;10.266;2023-06-04T04:01:34;5.23;;;4.83;;
20593;SDS011;10455;48.732;10.266;2023-06-04T04:06:36;5.43;;;4.93;;
20593;SDS011;10455;48.732;10.266;2023-06-04T04:11:39;5.33;;;4.83;;
20593;SDS011;10455;48.732;10.266;2023-06-04T04:16:41;6.40;;;4.10;;
20593;SDS011;10455;48.732;10.266;2023-06-04T04:21:43;5.83;;;5.17;;
20593;SDS011;10455;48.732;10.266;2023-06-04T04:26:49;4.87;;;4.37;;
20593;SDS011;10455;48.732;10.266;2023-06-04T04:31:53;4.83;;;4.37;;
20593;SDS011;10455;48.732;10.266;2023-06-04T04:36:56;4.57;;;4.13;;
20593;SDS011;10455;48.732;10.266;2023-06-04T04:42:00;4.63;;;3.93;;
20593;SDS011;10455;48.732;10.266;2023-06-04T04:47:02;4.00;;;3.60;;
20593;SDS011;10455;48.732;10.266;2023-06-04T04:52:04;3.97;;;3.58;;
20593;SDS011;10455;48.732;10.266;2023-06-04T04:57:08;3.10;;;2.90;;
20593;SDS011;10455;48.732;10.266;2023-06-04T05:02:10;3.70;;;2.92;;
20593;SDS011;10455;48.732;10.266;2023-06-04T05:07:11;4.25;;;3.25;;
20593;SDS011;10455;48.732;10.266;2023-06-04T05:12:15;4.22;;;2.92;;
20593;SDS011;10455;48.732;10.266;2023-06-04T05:17:17;2.75;;;2.53;;
20593;SDS011;10455;48.732;10.266;2023-06-04T05:22:21;3.90;;;2.35;;
20593;SDS011;10455;48.732;10.266;2023-06-04T05:27:27;3.80;;;2.70;;
20593;SDS011;10455;48.732;10.266;2023-06-04T05:32:29;4.78;;;2.72;;
20593;SDS011;10455;48.732;10.266;2023-06-04T05:37:32;4.43;;;2.60;;
20593;SDS011;10455;48.732;10.266;2023-06-04T05:42:35;2.83;;;2.55;;
20593;SDS011;10455;48.732;10.266;2023-06-04T05:47:38;3.08;;;2.53;;
20593;SDS011;10455;48.732;10.266;2023-06-04T05:52:40;4.60;;;2.60;;
20593;SDS011;10455;48.732;10.266;2023-06-04T05:57:43;3.30;;;2.92;;
20593;SDS011;10455;48.732;10.266;2023-06-04T06:02:45;3.20;;;2.78;;
20593;SDS011;10455;48.732;10.266;2023-06-04T06:07:49;3.90;;;2.60;;
20593;SDS011;10455;48.732;10.266;2023-06-04T06:12:52;4.20;;;2.60;;
20593;SDS011;10455;48.732;10.266;2023-06-04T06:17:54;3.00;;;2.35;;
20593;SDS011;10455;48.732;10.266;2023-06-04T06:22:56;6.43;;;3.03;;
20593;SDS011;10455;48.732;10.266;2023-06-04T06:27:59;3.10;;;2.80;;
20593;SDS011;10455;48.732;10.266;2023-06-04T06:33:01;4.63;;;2.70;;
20593;SDS011;10455;48.732;10.266;2023-06-04T06:38:03;3.35;;;2.78;;
20593;SDS011;10455;48.732;10.266;2023-06-04T06:43:06;3.10;;;2.80;;
20593;SDS011;10455;48.732;10.266;2023-06-04T06:48:08;4.40;;;2.88;;
20593;SDS011;10455;48.732;10.266;2023-06-04T06:53:10;3.65;;;2.70;;
20593;SDS011;10455;48.732;10.266;2023-06-04T06:58:13;6.00;;;2.97;;
20593;SDS011;10455;48.732;10.266;2023-06-04T07:03:15;4.82;;;2.85;;
20593;SDS011;10455;48.732;10.266;2023-06-04T07:08:17;3.45;;;3.03;;
20593;SDS011;10455;48.732;10.266;2023-06-04T07:13:20;3.97;;;3.03;;
20593;SDS011;10455;48.732;10.266;2023-06-04T07:18:22;5.80;;;3.47;;
20593;SDS011;10455;48.732;10.266;2023-06-04T07:23:24;4.10;;;3.00;;
20593;SDS011;10455;48.732;10.266;2023-06-04T07:28:27;3.47;;;3.17;;
20593;SDS011;10455;48.732;10.266;2023-06-04T07:33:29;3.47;;;3.10;;
20593;SDS011;10455;48.732;10.266;2023-06-04T07:38:31;4.68;;;2.90;;
20593;SDS011;10455;48.732;10.266;2023-06-04T07:43:35;4.88;;;2.70;;
20593;SDS011;10455;48.732;10.266;2023-06-04T07:48:37;3.65;;;3.20;;
20593;SDS011;10455;48.732;10.266;2023-06-04T07:53:39;2.92;;;2.70;;
20593;SDS011;10455;48.732;10.266;2023-06-04T07:58:44;3.60;;;3.10;;
20593;SDS011;10455;48.732;10.266;2023-06-04T08:03:46;3.25;;;2.90;;
20593;SDS011;10455;48.732;10.266;2023-06-04T08:08:48;3.42;;;3.13;;
20593;SDS011;10455;48.732;10.266;2023-06-04T08:13:52;5.28;;;3.03;;
20593;SDS011;10455;48.732;10.266;2023-06-04T08:18:53;3.45;;;2.88;;
20593;SDS011;10455;48.732;10.266;2023-06-04T08:23:55;4.22;;;3.17;;
20593;SDS011;10455;48.732;10.266;2023-06-04T08:29:01;4.82;;;3.10;;
20593;SDS011;10455;48.732;10.266;2023-06-04T08:34:03;3.38;;;3.08;;
20593;SDS011;10455;48.732;10.266;2023-06-04T08:39:05;3.05;;;2.63;;
20593;SDS011;10455;48.732;10.266;2023-06-04T08:44:11;4.30;;;3.20;;
20593;SDS011;10455;48.732;10.266;2023-06-04T08:49:13;3.55;;;3.08;;
20593;SDS011;10455;48.732;10.266;2023-06-04T08:54:16;4.53;;;3.15;;
20593;SDS011;10455;48.732;10.266;2023-06-04T08:59:19;3.30;;;3.00;;
20593;SDS011;10455;48.732;10.266;2023-06-04T09:04:21;5.65;;;3.00;;
20593;SDS011;10455;48.732;10.266;2023-06-04T09:09:23;3.53;;;3.22;;
20593;SDS011;10455;48.732;10.266;2023-06-04T09:14:27;4.63;;;3.35;;
20593;SDS011;10455;48.732;10.266;2023-06-04T09:19:29;4.65;;;3.53;;
20593;SDS011;10455;48.732;10.266;2023-06-04T09:24:38;5.53;;;3.40;;
20593;SDS011;10455;48.732;10.266;2023-06-04T09:29:49;3.97;;;3.50;;
20593;SDS011;10455;48.732;10.266;2023-06-04T09:34:52;3.38;;;3.08;;
20593;SDS011;10455;48.732;10.266;2023-06-04T09:39:54;3.13;;;2.83;;
20593;SDS011;10455;48.732;10.266;2023-06-04T09:44:58;3.35;;;3.05;;
20593;SDS011;10455;48.732;10.266;2023-06-04T09:50:01;4.65;;;3.33;;
20593;SDS011;10455;48.732;10.266;2023-06-04T09:55:03;4.55;;;3.47;;
20593;SDS011;10455;48.732;10.266;2023-06-04T10:00:20;4.07;;;3.33;;
20593;SDS011;10455;48.732;10.266;2023-06-04T10:05:23;3.72;;;3.40;;
20593;SDS011;10455;48.732;10.266;2023-06-04T10:10:26;4.30;;;3.10;;
20593;SDS011;10455;48.732;10.266;2023-06-04T10:15:30;5.05;;;3.60;;
20593;SDS011;10455;48.732;10.266;2023-06-04T10:20:34;4.65;;;3.90;;
20593;SDS011;10455;48.732;10.266;2023-06-04T10:25:36;4.28;;;3.88;;
20593;SDS011;10455;48.732;10.266;2023-06-04T10:30:40;3.90;;;3.55;;
20593;SDS011;10455;48.732;10.266;2023-06-04T10:35:42;4.63;;;3.78;;
20593;SDS011;10455;48.732;10.266;2023-06-04T10:40:44;4.57;;;3.70;;
20593;SDS011;10455;48.732;10.266;2023-06-04T10:45:47;4.32;;;3.88;;
20593;SDS011;10455;48.732;10.266;2023-06-04T10:50:49;5.13;;;3.65;;
20593;SDS011;10455;48.732;10.266;2023-06-04T10:55:52;4.30;;;3.80;;
20593;SDS011;10455;48.732;10.266;2023-06-04T11:00:55;4.40;;;3.90;;
20593;SDS011;10455;48.732;10.266;2023-06-04T11:05:57;5.07;;;3.35;;
20593;SDS011;10455;48.732;10.266;2023-06-04T11:11:09;4.97;;;3.78;;
20593;SDS011;10455;48.732;10.266;2023-06-04T11:16:17;5.25;;;3.70;;
20593;SDS011;10455;48.732;10.266;2023-06-04T11:21:20;4.38;;;3.60;;
20593;SDS011;10455;48.732;10.266;2023-06-04T11:26:29;4.65;;;3.40;;
20593;SDS011;10455;48.732;10.266;2023-06-04T11:31:41;4.05;;;3.70;;
20593;SDS011;10455;48.732;10.266;2023-06-04T11:36:44;3.90;;;3.50;;
20593;SDS011;10455;48.732;10.266;2023-06-04T11:41:46;3.97;;;3.58;;
20593;SDS011;10455;48.732;10.266;2023-06-04T11:46:50;5.90;;;3.60;;
20593;SDS011;10455;48.732;10.266;2023-06-04T11:51:53;5.05;;;3.80;;
20593;SDS011;10455;48.732;10.266;2023-06-04T11:56:55;4.28;;;3.88;;
20593;SDS011;10455;48.732;10.266;2023-06-04T12:01:59;6.53;;;3.95;;
20593;SDS011;10455;48.732;10.266;2023-06-04T12:07:01;4.15;;;3.75;;
20593;SDS011;10455;48.732;10.266;2023-06-04T12:12:05;4.93;;;3.72;;
20593;SDS011;10455;48.732;10.266;2023-06-04T12:17:10;7.18;;;3.80;;
20593;SDS011;10455;48.732;10.266;2023-06-04T12:22:12;4.50;;;4.10;;
20593;SDS011;10455;48.732;10.266;2023-06-04T12:27:14;4.38;;;3.97;;
20593;SDS011;10455;48.732;10.266;2023-06-04T12:32:17;4.70;;;4.30;;
20593;SDS011;10455;48.732;10.266;2023-06-04T12:37:19;4.93;;;4.40;;
20593;SDS011;10455;48.732;10.266;2023-06-04T12:42:22;5.03;;;3.90;;
20593;SDS011;10455;48.732;10.266;2023-06-04T12:47:25;5.88;;;3.92;;
20593;SDS011;10455;48.732;10.266;2023-06-04T12:52:27;4.30;;;3.90;;
20593;SDS011;10455;48.732;10.266;2023-06-04T12:57:29;6.20;;;3.78;;
20593;SDS011;10455;48.732;10.266;2023-06-04T13:02:32;4.18;;;3.85;;
20593;SDS011;10455;48.732;10.266;2023-06-04T13:07:34;6.30;;;4.05;;
20593;SDS011;10455;48.732;10.266;2023-06-04T13:12:36;4.32;;;3.92;;
20593;SDS011;10455;48.732;10.266;2023-06-04T13:17:39;4.78;;;4.38;;
20593;SDS011;10455;48.732;10.266;2023-06-04T13:22:41;4.68;;;4.28;;
20593;SDS011;10455;48.732;10.266;2023-06-04T13:27:44;5.00;;;4.38;;
20593;SDS011;10455;48.732;10.266;2023-06-04T13:32:47;4.95;;;4.35;;
20593;SDS011;10455;48.732;10.266;2023-06-04T13:37:49;4.47;;;4.15;;
20593;SDS011;10455;48.732;10.266;2023-06-04T13:42:51;4.75;;;3.92;;
20593;SDS011;10455;48.732;10.266;2023-06-04T13:47:54;4.65;;;4.22;;
20593;SDS011;10455;48.732;10.266;2023-06-04T13:52:58;4.30;;;4.00;;
20593;SDS011;10455;48.732;10.266;2023-06-04T13:58:00;4.88;;;4.35;;
20593;SDS011;10455;48.732;10.266;2023-06-04T14:03:04;4.50;;;4.20;;
20593;SDS011;10455;48.732;10.266;2023-06-04T14:08:06;4.70;;;4.10;;
20593;SDS011;10455;48.732;10.266;2023-06-04T14:13:08;5.45;;;3.95;;
20593;SDS011;10455;48.732;10.266;2023-06-04T14:18:11;3.85;;;3.55;;
20593;SDS011;10455;48.732;10.266;2023-06-04T14:23:13;4.55;;;3.60;;
20593;SDS011;10455;48.732;10.266;2023-06-04T14:28:16;4.45;;;4.05;;
20593;SDS011;10455;48.732;10.266;2023-06-04T14:33:22;4.47;;;4.07;;
20593;SDS011;10455;48.732;10.266;2023-06-04T14:38:24;5.60;;;4.40;;
20593;SDS011;10455;48.732;10.266;2023-06-04T14:43:25;4.35;;;3.70;;
20593;SDS011;10455;48.732;10.266;2023-06-04T14:48:29;4.13;;;3.72;;
20593;SDS011;10455;48.732;10.266;2023-06-04T14:53:31;5.47;;;3.47;;
20593;SDS011;10455;48.732;10.266;2023-06-04T14:58:32;5.07;;;4.50;;
20593;SDS011;10455;48.732;10.266;2023-06-04T15:03:37;6.20;;;4.05;;
20593;SDS011;10455;48.732;10.266;2023-06-04T15:08:39;4.53;;;4.10;;
20593;SDS011;10455;48.732;10.266;2023-06-04T15:13:41;5.00;;;4.00;;
20593;SDS011;10455;48.732;10.266;2023-06-04T15:18:44;4.53;;;3.97;;
20593;SDS011;10455;48.732;10.266;2023-06-04T15:23:46;4.45;;;3.95;;
20593;SDS011;10455;48.732;10.266;2023-06-04T15:28:48;3.92;;;3.60;;
20593;SDS011;10455;48.732;10.266;2023-06-04T15:33:52;5.43;;;3.90;;
20593;SDS011;10455;48.732;10.266;2023-06-04T15:38:54;4.15;;;3.75;;
20593;SDS011;10455;48.732;10.266;2023-06-04T15:43:55;4.85;;;3.20;;
20593;SDS011;10455;48.732;10.266;2023-06-04T15:48:59;5.15;;;3.58;;
20593;SDS011;10455;48.732;10.266;2023-06-04T15:54:06;4.28;;;3.42;;
20593;SDS011;10455;48.732;10.266;2023-06-04T15:59:08;4.18;;;3.78;;
20593;SDS011;10455;48.732;10.266;2023-06-04T16:04:12;4.13;;;3.72;;
20593;SDS011;10455;48.732;10.266;2023-06-04T16:09:14;4.35;;;3.95;;
20593;SDS011;10455;48.732;10.266;2023-06-04T16:14:16;6.88;;;4.22;;
20593;SDS011;10455;48.732;10.266;2023-06-04T16:19:19;8.13;;;3.90;;
20593;SDS011;10455;48.732;10.266;2023-06-04T16:24:21;4.25;;;3.88;;
20593;SDS011;10455;48.732;10.266;2023-06-04T16:29:23;3.90;;;3.60;;
20593;SDS011;10455;48.732;10.266;2023-06-04T16:34:26;6.00;;;3.63;;
20593;SDS011;10455;48.732;10.266;2023-06-04T16:39:28;4.43;;;3.42;;
20593;SDS011;10455;48.732;10.266;2023-06-04T16:44:30;4.25;;;3.85;;
20593;SDS011;10455;48.732;10.266;2023-06-04T16:49:33;4.00;;;3.60;;
20593;SDS011;10455;48.732;10.266;2023-06-04T16:54:35;5.20;;;3.65;;
20593;SDS011;10455;48.732;10.266;2023-06-04T16:59:37;3.72;;;3.42;;
20593;SDS011;10455;48.732;10.266;2023-06-04T17:04:43;5.38;;;3.53;;
20593;SDS011;10455;48.732;10.266;2023-06-04T17:09:45;4.63;;;3.78;;
20593;SDS011;10455;48.732;10.266;2023-06-04T17:14:47;3.97;;;3.45;;
20593;SDS011;10455;48.732;10.266;2023-06-04T17:19:50;3.83;;;3.53;;
20593;SDS011;10455;48.732;10.266;2023-06-04T17:24:52;4.55;;;3.58;;
20593;SDS011;10455;48.732;10.266;2023-06-04T17:29:54;3.78;;;3.47;;
20593;SDS011;10455;48.732;10.266;2023-06-04T17:34:57;3.70;;;3.35;;
20593;SDS011;10455;48.732;10.266;2023-06-04T17:39:59;3.88;;;3.53;;
20593;SDS011;10455;48.732;10.266;2023-06-04T17:45:01;3.80;;;3.22;;
20593;SDS011;10455;48.732;10.266;2023-06-04T17:50:09;5.55;;;4.00;;
20593;SDS011;10455;48.732;10.266;2023-06-04T17:55:11;4.10;;;3.33;;
20593;SDS011;10455;48.732;10.266;2023-06-04T18:00:14;4.13;;;3.60;;
20593;SDS011;10455;48.732;10.266;2023-06-04T18:05:17;3.97;;;3.58;;
20593;SDS011;10455;48.732;10.266;2023-06-04T18:10:19;4.60;;;3.75;;
20593;SDS011;10455;48.732;10.266;2023-06-04T18:15:21;6.63;;;3.58;;
20593;SDS011;10455;48.732;10.266;2023-06-04T18:20:25;3.90;;;3.50;;
20593;SDS011;10455;48.732;10.266;2023-06-04T18:25:27;3.78;;;3.47;;
20593;SDS011;10455;48.732;10.266;2023-06-04T18:30:28;3.80;;;3.30;;
20593;SDS011;10455;48.732;10.266;2023-06-04T18:35:32;5.68;;;3.85;;
20593;SDS011;10455;48.732;10.266;2023-06-04T18:40:34;3.97;;;3.53;;
20593;SDS011;10455;48.732;10.266;2023-06-04T18:45:36;4.60;;;3.88;;
20593;SDS011;10455;48.732;10.266;2023-06-04T18:50:39;4.65;;;3.70;;
20593;SDS011;10455;48.732;10.266;2023-06-04T18:55:42;4.88;;;4.03;;
20593;SDS011;10455;48.732;10.266;2023-06-04T19:00:44;3.75;;;3.45;;
20593;SDS011;10455;48.732;10.266;2023-06-04T19:05:49;4.75;;;3.63;;
20593;SDS011;10455;48.732;10.266;2023-06-04T19:10:52;4.10;;;3.70;;
20593;SDS011;10455;48.732;10.266;2023-06-04T19:15:54;4.13;;;3.47;;
20593;SDS011;10455;48.732;10.266;2023-06-04T19:20:57;4.40;;;3.97;;
20593;SDS011;10455;48.732;10.266;2023-06-04T19:25:59;5.43;;;3.90;;
20593;SDS011;10455;48.732;10.266;2023-06-04T19:31:01;4.32;;;4.00;;
20593;SDS011;10455;48.732;10.266;2023-06-04T19:36:05;4.80;;;4.40;;
20593;SDS011;10455;48.732;10.266;2023-06-04T19:41:06;5.38;;;3.92;;
20593;SDS011;10455;48.732;10.266;2023-06-04T19:46:08;4.10;;;3.75;;
20593;SDS011;10455;48.732;10.266;2023-06-04T19:51:12;5.10;;;3.88;;
20593;SDS011;10455;48.732;10.266;2023-06-04T19:56:14;7.13;;;4.95;;
20593;SDS011;10455;48.732;10.266;2023-06-04T20:01:16;4.25;;;3.85;;
20593;SDS011;10455;48.732;10.266;2023-06-04T20:06:20;9.17;;;7.90;;
20593;SDS011;10455;48.732;10.266;2023-06-04T20:11:21;6.87;;;5.40;;
20593;SDS011;10455;48.732;10.266;2023-06-04T20:16:24;6.90;;;5.97;;
20593;SDS011;10455;48.732;10.266;2023-06-04T20:21:28;5.93;;;4.50;;
20593;SDS011;10455;48.732;10.266;2023-06-04T20:26:29;4.90;;;4.07;;
20593;SDS011;10455;48.732;10.266;2023-06-04T20:31:32;5.97;;;3.93;;
20593;SDS011;10455;48.732;10.266;2023-06-04T20:36:36;4.37;;;3.97;;
20593;SDS011;10455;48.732;10.266;2023-06-04T20:41:38;4.67;;;4.13;;
20593;SDS011;10455;48.732;10.266;2023-06-04T20:46:40;4.20;;;3.90;;
20593;SDS011;10455;48.732;10.266;2023-06-04T20:51:43;4.90;;;4.20;;
20593;SDS011;10455;48.732;10.266;2023-06-04T20:56:45;4.43;;;4.03;;
20593;SDS011;10455;48.732;10.266;2023-06-04T21:01:46;4.87;;;4.40;;
20593;SDS011;10455;48.732;10.266;2023-06-04T21:06:50;4.40;;;4.00;;
20593;SDS011;10455;48.732;10.266;2023-06-04T21:11:52;6.50;;;4.10;;
20593;SDS011;10455;48.732;10.266;2023-06-04T21:16:53;5.10;;;4.33;;
20593;SDS011;10455;48.732;10.266;2023-06-04T21:21:57;6.67;;;4.30;;
20593;SDS011;10455;48.732;10.266;2023-06-04T21:26:59;4.43;;;4.13;;
20593;SDS011;10455;48.732;10.266;2023-06-04T21:32:00;7.03;;;4.23;;
20593;SDS011;10455;48.732;10.266;2023-06-04T21:37:04;5.60;;;4.77;;
20593;SDS011;10455;48.732;10.266;2023-06-04T21:42:06;8.20;;;5.23;;
20593;SDS011;10455;48.732;10.266;2023-06-04T21:47:08;6.53;;;4.80;;
20593;SDS011;10455;48.732;10.266;2023-06-04T21:52:11;6.47;;;4.50;;
20593;SDS011;10455;48.732;10.266;2023-06-04T21:57:13;6.17;;;4.90;;
20593;SDS011;10455;48.732;10.266;2023-06-04T22:02:15;5.37;;;4.87;;
20593;SDS011;10455;48.732;10.266;2023-06-04T22:07:18;5.87;;;5.00;;
20593;SDS011;10455;48.732;10.266;2023-06-04T22:12:20;5.57;;;5.00;;
20593;SDS011;10455;48.732;10.266;2023-06-04T22:17:22;5.60;;;5.00;;
20593;SDS011;10455;48.732;10.266;2023-06-04T22:22:25;6.13;;;5.00;;
20593;SDS011;10455;48.732;10.266;2023-06-04T22:27:27;5.63;;;5.07;;
20593;SDS011;10455;48.732;10.266;2023-06-04T22:32:29;5.60;;;5.10;;
20593;SDS011;10455;48.732;10.266;2023-06-04T22:37:32;5.77;;;5.17;;
20593;SDS011;10455;48.732;10.266;2023-06-04T22:42:34;5.67;;;5.13;;
20593;SDS011;10455;48.732;10.266;2023-06-04T22:47:36;5.67;;;4.87;;
20593;SDS011;10455;48.732;10.266;2023-06-04T22:52:39;6.20;;;5.60;;
20593;SDS011;10455;48.732;10.266;2023-06-04T22:57:41;7.80;;;5.60;;
20593;SDS011;10455;48.732;10.266;2023-06-04T23:02:44;5.93;;;5.30;;
20593;SDS011;10455;48.732;10.266;2023-06-04T23:07:48;5.93;;;5.43;;
20593;SDS011;10455;48.732;10.266;2023-06-04T23:12:50;6.00;;;5.40;;
20593;SDS011;10455;48.732;10.266;2023-06-04T23:17:52;6.93;;;5.47;;
20593;SDS011;10455;48.732;10.266;2023-06-04T23:22:55;6.97;;;5.73;;
20593;SDS011;10455;48.732;10.266;2023-06-04T23:27:57;6.23;;;5.63;;
20593;SDS011;10455;48.732;10.266;2023-06-04T23:32:59;6.83;;;5.97;;
20593;SDS011;10455;48.732;10.266;2023-06-04T23:38:04;6.67;;;5.97;;
20593;SDS011;10455;48.732;10.266;2023-06-04T23:43:05;6.03;;;5.33;;
20593;SDS011;10455;48.732;10.266;2023-06-04T23:48:07;5.37;;;4.93;;
20593;SDS011;10455;48.732;10.266;2023-06-04T23:53:11;5.80;;;5.20;;
20593;SDS011;10455;48.732;10.266;2023-06-04T23:58:13;6.03;;;5.43;;
